Terminal Aerodrome Forecast
Issued by NWS

Home | Current Version | Previous Version | Text Only | Print | Product List | Glossary On
Versions: 1 2 3 4 5 6 7 8 9 10 11 12 13
226
FTUS43 KABR 220523
TAFMBG
TAF
KMBG 220523Z 2206/2306 VRB06KT P6SM BKN150
     FM220800 VRB06KT 1/2SM FG OVC020
     FM221600 35006KT 2SM BR SCT003
     FM221800 VRB06KT P6SM FEW150=

USA.gov is the U.S. government's official web portal to all federal, state and local government web resources and services.